sensor_id;sensor_type;location;lat;lon;timestamp;P1;durP1;ratioP1;P2;durP2;ratioP2
68357;SDS011;55276;53.260;50.222;2022-07-22T00:00:26;5.85;;;2.30;;
68357;SDS011;55276;53.260;50.222;2022-07-22T00:02:53;2.28;;;1.80;;
68357;SDS011;55276;53.260;50.222;2022-07-22T00:05:19;4.38;;;1.70;;
68357;SDS011;55276;53.260;50.222;2022-07-22T00:07:45;2.05;;;1.85;;
68357;SDS011;55276;53.260;50.222;2022-07-22T00:10:11;6.32;;;1.95;;
68357;SDS011;55276;53.260;50.222;2022-07-22T00:12:38;3.05;;;1.88;;
68357;SDS011;55276;53.260;50.222;2022-07-22T00:15:05;5.22;;;1.90;;
68357;SDS011;55276;53.260;50.222;2022-07-22T00:17:32;6.97;;;2.03;;
68357;SDS011;55276;53.260;50.222;2022-07-22T00:19:58;4.10;;;2.10;;
68357;SDS011;55276;53.260;50.222;2022-07-22T00:22:25;3.77;;;2.00;;
68357;SDS011;55276;53.260;50.222;2022-07-22T00:24:51;3.13;;;2.08;;
68357;SDS011;55276;53.260;50.222;2022-07-22T00:27:17;3.00;;;2.15;;
68357;SDS011;55276;53.260;50.222;2022-07-22T00:29:43;2.67;;;1.70;;
68357;SDS011;55276;53.260;50.222;2022-07-22T00:32:10;4.65;;;1.90;;
68357;SDS011;55276;53.260;50.222;2022-07-22T00:34:36;4.45;;;2.50;;
68357;SDS011;55276;53.260;50.222;2022-07-22T00:37:02;3.17;;;2.00;;
68357;SDS011;55276;53.260;50.222;2022-07-22T00:41:56;5.40;;;2.15;;
68357;SDS011;55276;53.260;50.222;2022-07-22T00:44:22;5.00;;;1.95;;
68357;SDS011;55276;53.260;50.222;2022-07-22T00:46:48;5.28;;;1.85;;
68357;SDS011;55276;53.260;50.222;2022-07-22T00:49:14;6.47;;;2.20;;
68357;SDS011;55276;53.260;50.222;2022-07-22T00:51:40;4.32;;;1.95;;
68357;SDS011;55276;53.260;50.222;2022-07-22T00:54:06;6.68;;;2.05;;
68357;SDS011;55276;53.260;50.222;2022-07-22T00:56:33;2.75;;;2.00;;
68357;SDS011;55276;53.260;50.222;2022-07-22T00:59:00;3.03;;;2.00;;
68357;SDS011;55276;53.260;50.222;2022-07-22T01:01:28;2.55;;;2.00;;
68357;SDS011;55276;53.260;50.222;2022-07-22T01:03:54;4.43;;;1.80;;
68357;SDS011;55276;53.260;50.222;2022-07-22T01:06:20;6.07;;;2.03;;
68357;SDS011;55276;53.260;50.222;2022-07-22T01:08:47;4.38;;;2.08;;
68357;SDS011;55276;53.260;50.222;2022-07-22T01:11:17;4.20;;;1.95;;
68357;SDS011;55276;53.260;50.222;2022-07-22T01:13:45;3.40;;;1.85;;
68357;SDS011;55276;53.260;50.222;2022-07-22T01:16:13;2.95;;;2.15;;
68357;SDS011;55276;53.260;50.222;2022-07-22T01:18:39;4.50;;;1.98;;
68357;SDS011;55276;53.260;50.222;2022-07-22T01:21:10;3.40;;;2.17;;
68357;SDS011;55276;53.260;50.222;2022-07-22T01:23:37;7.40;;;2.10;;
68357;SDS011;55276;53.260;50.222;2022-07-22T01:26:04;5.53;;;1.98;;
68357;SDS011;55276;53.260;50.222;2022-07-22T01:28:30;4.70;;;2.15;;
68357;SDS011;55276;53.260;50.222;2022-07-22T01:30:57;4.88;;;2.22;;
68357;SDS011;55276;53.260;50.222;2022-07-22T01:33:23;5.10;;;1.90;;
68357;SDS011;55276;53.260;50.222;2022-07-22T01:35:49;3.72;;;2.22;;
68357;SDS011;55276;53.260;50.222;2022-07-22T01:38:16;5.35;;;2.22;;
68357;SDS011;55276;53.260;50.222;2022-07-22T01:40:43;3.00;;;2.20;;
68357;SDS011;55276;53.260;50.222;2022-07-22T01:43:09;7.38;;;2.40;;
68357;SDS011;55276;53.260;50.222;2022-07-22T01:45:36;5.25;;;2.30;;
68357;SDS011;55276;53.260;50.222;2022-07-22T01:48:02;4.25;;;2.40;;
68357;SDS011;55276;53.260;50.222;2022-07-22T01:50:29;9.20;;;2.50;;
68357;SDS011;55276;53.260;50.222;2022-07-22T01:52:55;7.93;;;2.63;;
68357;SDS011;55276;53.260;50.222;2022-07-22T01:55:22;4.57;;;2.30;;
68357;SDS011;55276;53.260;50.222;2022-07-22T01:57:48;3.42;;;2.25;;
68357;SDS011;55276;53.260;50.222;2022-07-22T02:00:14;8.82;;;2.80;;
68357;SDS011;55276;53.260;50.222;2022-07-22T02:02:41;5.45;;;2.90;;
68357;SDS011;55276;53.260;50.222;2022-07-22T02:05:07;9.27;;;2.58;;
68357;SDS011;55276;53.260;50.222;2022-07-22T02:07:34;13.32;;;3.17;;
68357;SDS011;55276;53.260;50.222;2022-07-22T02:10:00;11.50;;;3.10;;
68357;SDS011;55276;53.260;50.222;2022-07-22T02:12:26;7.50;;;3.28;;
68357;SDS011;55276;53.260;50.222;2022-07-22T02:14:52;7.07;;;3.70;;
68357;SDS011;55276;53.260;50.222;2022-07-22T02:17:18;10.82;;;3.65;;
68357;SDS011;55276;53.260;50.222;2022-07-22T02:19:44;7.55;;;3.25;;
68357;SDS011;55276;53.260;50.222;2022-07-22T02:22:11;9.20;;;2.92;;
68357;SDS011;55276;53.260;50.222;2022-07-22T02:24:37;11.52;;;3.20;;
68357;SDS011;55276;53.260;50.222;2022-07-22T02:27:03;7.15;;;3.17;;
68357;SDS011;55276;53.260;50.222;2022-07-22T02:29:31;9.13;;;3.60;;
68357;SDS011;55276;53.260;50.222;2022-07-22T02:31:59;12.82;;;3.65;;
68357;SDS011;55276;53.260;50.222;2022-07-22T02:34:25;14.07;;;3.63;;
68357;SDS011;55276;53.260;50.222;2022-07-22T02:36:52;10.25;;;3.40;;
68357;SDS011;55276;53.260;50.222;2022-07-22T02:39:18;10.40;;;3.72;;
68357;SDS011;55276;53.260;50.222;2022-07-22T02:41:44;9.95;;;3.60;;
68357;SDS011;55276;53.260;50.222;2022-07-22T02:44:10;10.30;;;3.40;;
68357;SDS011;55276;53.260;50.222;2022-07-22T02:46:36;7.60;;;3.10;;
68357;SDS011;55276;53.260;50.222;2022-07-22T02:49:03;15.57;;;3.60;;
68357;SDS011;55276;53.260;50.222;2022-07-22T02:51:29;11.20;;;3.92;;
68357;SDS011;55276;53.260;50.222;2022-07-22T02:53:56;11.38;;;3.72;;
68357;SDS011;55276;53.260;50.222;2022-07-22T02:56:22;12.18;;;3.70;;
68357;SDS011;55276;53.260;50.222;2022-07-22T02:58:48;8.35;;;3.45;;
68357;SDS011;55276;53.260;50.222;2022-07-22T03:01:17;10.50;;;3.58;;
68357;SDS011;55276;53.260;50.222;2022-07-22T03:03:44;13.32;;;3.63;;
68357;SDS011;55276;53.260;50.222;2022-07-22T03:06:11;9.75;;;3.58;;
68357;SDS011;55276;53.260;50.222;2022-07-22T03:08:37;10.00;;;3.78;;
68357;SDS011;55276;53.260;50.222;2022-07-22T03:11:04;8.40;;;4.03;;
68357;SDS011;55276;53.260;50.222;2022-07-22T03:13:31;13.40;;;3.80;;
68357;SDS011;55276;53.260;50.222;2022-07-22T03:15:57;12.18;;;3.83;;
68357;SDS011;55276;53.260;50.222;2022-07-22T03:18:23;11.88;;;3.80;;
68357;SDS011;55276;53.260;50.222;2022-07-22T03:20:49;9.63;;;3.80;;
68357;SDS011;55276;53.260;50.222;2022-07-22T03:23:16;10.23;;;4.05;;
68357;SDS011;55276;53.260;50.222;2022-07-22T03:25:44;9.10;;;3.13;;
68357;SDS011;55276;53.260;50.222;2022-07-22T03:28:10;10.43;;;3.55;;
68357;SDS011;55276;53.260;50.222;2022-07-22T03:30:36;7.22;;;3.17;;
68357;SDS011;55276;53.260;50.222;2022-07-22T03:33:03;4.78;;;3.00;;
68357;SDS011;55276;53.260;50.222;2022-07-22T03:35:29;6.70;;;2.72;;
68357;SDS011;55276;53.260;50.222;2022-07-22T03:37:55;6.43;;;2.60;;
68357;SDS011;55276;53.260;50.222;2022-07-22T03:40:21;8.23;;;2.58;;
68357;SDS011;55276;53.260;50.222;2022-07-22T03:42:47;5.65;;;2.70;;
68357;SDS011;55276;53.260;50.222;2022-07-22T03:45:13;5.10;;;3.10;;
68357;SDS011;55276;53.260;50.222;2022-07-22T03:47:39;8.10;;;3.05;;
68357;SDS011;55276;53.260;50.222;2022-07-22T03:50:06;8.93;;;3.47;;
68357;SDS011;55276;53.260;50.222;2022-07-22T03:52:32;7.40;;;3.60;;
68357;SDS011;55276;53.260;50.222;2022-07-22T03:54:58;9.45;;;3.85;;
68357;SDS011;55276;53.260;50.222;2022-07-22T03:57:25;10.10;;;3.50;;
68357;SDS011;55276;53.260;50.222;2022-07-22T03:59:52;7.38;;;3.40;;
68357;SDS011;55276;53.260;50.222;2022-07-22T04:02:18;9.43;;;3.40;;
68357;SDS011;55276;53.260;50.222;2022-07-22T04:04:45;16.23;;;3.92;;
68357;SDS011;55276;53.260;50.222;2022-07-22T04:07:11;6.57;;;3.28;;
68357;SDS011;55276;53.260;50.222;2022-07-22T04:09:37;8.32;;;3.42;;
68357;SDS011;55276;53.260;50.222;2022-07-22T04:12:03;7.93;;;3.40;;
68357;SDS011;55276;53.260;50.222;2022-07-22T04:14:30;7.97;;;3.40;;
68357;SDS011;55276;53.260;50.222;2022-07-22T04:16:56;10.65;;;3.90;;
68357;SDS011;55276;53.260;50.222;2022-07-22T04:19:22;15.07;;;3.60;;
68357;SDS011;55276;53.260;50.222;2022-07-22T04:21:48;11.20;;;3.47;;
68357;SDS011;55276;53.260;50.222;2022-07-22T04:24:14;12.50;;;3.80;;
68357;SDS011;55276;53.260;50.222;2022-07-22T04:26:40;10.07;;;4.05;;
68357;SDS011;55276;53.260;50.222;2022-07-22T04:29:07;15.15;;;3.97;;
68357;SDS011;55276;53.260;50.222;2022-07-22T04:31:33;16.42;;;3.85;;
68357;SDS011;55276;53.260;50.222;2022-07-22T04:33:59;10.55;;;3.58;;
68357;SDS011;55276;53.260;50.222;2022-07-22T04:36:25;6.43;;;2.65;;
68357;SDS011;55276;53.260;50.222;2022-07-22T04:38:52;4.55;;;2.70;;
68357;SDS011;55276;53.260;50.222;2022-07-22T04:41:18;9.07;;;2.80;;
68357;SDS011;55276;53.260;50.222;2022-07-22T04:43:44;3.85;;;2.63;;
68357;SDS011;55276;53.260;50.222;2022-07-22T04:46:10;7.43;;;3.15;;
68357;SDS011;55276;53.260;50.222;2022-07-22T04:48:36;10.05;;;3.38;;
68357;SDS011;55276;53.260;50.222;2022-07-22T04:51:02;9.77;;;2.90;;
68357;SDS011;55276;53.260;50.222;2022-07-22T04:53:29;9.90;;;3.30;;
68357;SDS011;55276;53.260;50.222;2022-07-22T04:55:55;12.05;;;3.22;;
68357;SDS011;55276;53.260;50.222;2022-07-22T04:58:21;9.45;;;3.00;;
68357;SDS011;55276;53.260;50.222;2022-07-22T05:00:47;6.82;;;3.05;;
68357;SDS011;55276;53.260;50.222;2022-07-22T05:03:14;6.07;;;3.42;;
68357;SDS011;55276;53.260;50.222;2022-07-22T05:05:40;8.88;;;3.05;;
68357;SDS011;55276;53.260;50.222;2022-07-22T05:08:06;7.47;;;3.08;;
68357;SDS011;55276;53.260;50.222;2022-07-22T05:10:32;10.60;;;3.00;;
68357;SDS011;55276;53.260;50.222;2022-07-22T05:12:59;8.43;;;3.38;;
68357;SDS011;55276;53.260;50.222;2022-07-22T05:15:25;7.65;;;3.30;;
68357;SDS011;55276;53.260;50.222;2022-07-22T05:17:51;9.55;;;2.97;;
68357;SDS011;55276;53.260;50.222;2022-07-22T05:20:17;12.32;;;3.10;;
68357;SDS011;55276;53.260;50.222;2022-07-22T05:22:44;14.32;;;3.95;;
68357;SDS011;55276;53.260;50.222;2022-07-22T05:25:14;12.20;;;4.60;;
68357;SDS011;55276;53.260;50.222;2022-07-22T05:27:49;9.50;;;3.92;;
68357;SDS011;55276;53.260;50.222;2022-07-22T05:30:17;12.23;;;3.80;;
68357;SDS011;55276;53.260;50.222;2022-07-22T05:35:09;15.88;;;3.60;;
68357;SDS011;55276;53.260;50.222;2022-07-22T05:37:35;20.27;;;3.78;;
68357;SDS011;55276;53.260;50.222;2022-07-22T05:40:01;13.88;;;3.47;;
68357;SDS011;55276;53.260;50.222;2022-07-22T05:42:28;15.50;;;3.60;;
68357;SDS011;55276;53.260;50.222;2022-07-22T05:44:54;11.98;;;3.40;;
68357;SDS011;55276;53.260;50.222;2022-07-22T05:47:20;15.32;;;3.50;;
68357;SDS011;55276;53.260;50.222;2022-07-22T05:49:46;16.83;;;3.20;;
68357;SDS011;55276;53.260;50.222;2022-07-22T05:52:13;13.82;;;3.45;;
68357;SDS011;55276;53.260;50.222;2022-07-22T05:54:39;10.90;;;3.50;;
68357;SDS011;55276;53.260;50.222;2022-07-22T05:57:05;16.45;;;3.63;;
68357;SDS011;55276;53.260;50.222;2022-07-22T05:59:34;17.27;;;3.70;;
68357;SDS011;55276;53.260;50.222;2022-07-22T06:02:01;17.60;;;3.77;;
68357;SDS011;55276;53.260;50.222;2022-07-22T06:04:27;21.55;;;3.55;;
68357;SDS011;55276;53.260;50.222;2022-07-22T06:06:53;15.23;;;3.55;;
68357;SDS011;55276;53.260;50.222;2022-07-22T06:09:19;16.90;;;3.78;;
68357;SDS011;55276;53.260;50.222;2022-07-22T06:11:46;11.02;;;3.60;;
68357;SDS011;55276;53.260;50.222;2022-07-22T06:14:12;11.38;;;3.05;;
68357;SDS011;55276;53.260;50.222;2022-07-22T06:16:38;18.13;;;3.65;;
68357;SDS011;55276;53.260;50.222;2022-07-22T06:19:04;11.00;;;3.45;;
68357;SDS011;55276;53.260;50.222;2022-07-22T06:21:30;20.55;;;3.80;;
68357;SDS011;55276;53.260;50.222;2022-07-22T06:23:57;11.18;;;3.70;;
68357;SDS011;55276;53.260;50.222;2022-07-22T06:26:23;15.20;;;3.77;;
68357;SDS011;55276;53.260;50.222;2022-07-22T06:28:51;17.65;;;4.00;;
68357;SDS011;55276;53.260;50.222;2022-07-22T06:31:17;16.85;;;4.13;;
68357;SDS011;55276;53.260;50.222;2022-07-22T06:33:43;23.45;;;4.68;;
68357;SDS011;55276;53.260;50.222;2022-07-22T06:36:09;16.48;;;4.40;;
68357;SDS011;55276;53.260;50.222;2022-07-22T06:38:35;22.15;;;4.07;;
68357;SDS011;55276;53.260;50.222;2022-07-22T06:41:01;11.70;;;3.30;;
68357;SDS011;55276;53.260;50.222;2022-07-22T06:43:27;13.85;;;3.55;;
68357;SDS011;55276;53.260;50.222;2022-07-22T06:45:56;11.35;;;3.25;;
68357;SDS011;55276;53.260;50.222;2022-07-22T06:48:22;13.40;;;3.53;;
68357;SDS011;55276;53.260;50.222;2022-07-22T06:50:48;9.75;;;3.38;;
68357;SDS011;55276;53.260;50.222;2022-07-22T06:53:15;9.90;;;3.88;;
68357;SDS011;55276;53.260;50.222;2022-07-22T06:55:41;9.13;;;3.00;;
68357;SDS011;55276;53.260;50.222;2022-07-22T06:58:07;10.27;;;3.00;;
68357;SDS011;55276;53.260;50.222;2022-07-22T07:00:33;7.25;;;3.20;;
68357;SDS011;55276;53.260;50.222;2022-07-22T07:02:59;11.77;;;3.45;;
68357;SDS011;55276;53.260;50.222;2022-07-22T07:05:26;8.55;;;2.97;;
68357;SDS011;55276;53.260;50.222;2022-07-22T07:07:54;18.92;;;3.65;;
68357;SDS011;55276;53.260;50.222;2022-07-22T07:10:21;12.05;;;3.80;;
68357;SDS011;55276;53.260;50.222;2022-07-22T07:12:48;16.52;;;3.85;;
68357;SDS011;55276;53.260;50.222;2022-07-22T07:15:14;16.50;;;3.90;;
68357;SDS011;55276;53.260;50.222;2022-07-22T07:17:40;18.88;;;4.32;;
68357;SDS011;55276;53.260;50.222;2022-07-22T07:20:06;20.20;;;4.63;;
68357;SDS011;55276;53.260;50.222;2022-07-22T07:22:33;21.95;;;5.07;;
68357;SDS011;55276;53.260;50.222;2022-07-22T07:25:06;14.15;;;5.05;;
68357;SDS011;55276;53.260;50.222;2022-07-22T07:27:36;16.25;;;5.05;;
68357;SDS011;55276;53.260;50.222;2022-07-22T07:30:05;16.40;;;5.30;;
68357;SDS011;55276;53.260;50.222;2022-07-22T07:32:34;22.13;;;5.30;;
68357;SDS011;55276;53.260;50.222;2022-07-22T07:35:01;19.45;;;5.25;;
68357;SDS011;55276;53.260;50.222;2022-07-22T07:37:31;18.10;;;4.22;;
68357;SDS011;55276;53.260;50.222;2022-07-22T07:39:58;12.38;;;4.03;;
68357;SDS011;55276;53.260;50.222;2022-07-22T07:42:24;10.85;;;3.72;;
68357;SDS011;55276;53.260;50.222;2022-07-22T07:44:50;12.77;;;3.47;;
68357;SDS011;55276;53.260;50.222;2022-07-22T07:47:17;17.47;;;3.63;;
68357;SDS011;55276;53.260;50.222;2022-07-22T07:49:46;8.40;;;3.22;;
68357;SDS011;55276;53.260;50.222;2022-07-22T07:52:13;11.93;;;3.20;;
68357;SDS011;55276;53.260;50.222;2022-07-22T07:54:39;9.15;;;3.20;;
68357;SDS011;55276;53.260;50.222;2022-07-22T07:57:07;17.50;;;3.78;;
68357;SDS011;55276;53.260;50.222;2022-07-22T07:59:34;14.40;;;3.50;;
68357;SDS011;55276;53.260;50.222;2022-07-22T08:02:00;13.35;;;4.32;;
68357;SDS011;55276;53.260;50.222;2022-07-22T08:04:26;10.33;;;4.27;;
68357;SDS011;55276;53.260;50.222;2022-07-22T08:06:52;11.48;;;4.50;;
68357;SDS011;55276;53.260;50.222;2022-07-22T08:09:18;12.80;;;4.33;;
68357;SDS011;55276;53.260;50.222;2022-07-22T08:11:44;15.20;;;4.50;;
68357;SDS011;55276;53.260;50.222;2022-07-22T08:14:11;11.98;;;3.58;;
68357;SDS011;55276;53.260;50.222;2022-07-22T08:16:37;7.63;;;3.97;;
68357;SDS011;55276;53.260;50.222;2022-07-22T08:19:03;14.37;;;3.97;;
68357;SDS011;55276;53.260;50.222;2022-07-22T08:21:29;14.57;;;4.82;;
68357;SDS011;55276;53.260;50.222;2022-07-22T08:23:55;7.67;;;2.57;;
68357;SDS011;55276;53.260;50.222;2022-07-22T08:26:22;4.35;;;2.10;;
68357;SDS011;55276;53.260;50.222;2022-07-22T08:28:51;7.70;;;2.20;;
68357;SDS011;55276;53.260;50.222;2022-07-22T08:31:17;6.18;;;2.50;;
68357;SDS011;55276;53.260;50.222;2022-07-22T08:33:43;12.32;;;2.20;;
68357;SDS011;55276;53.260;50.222;2022-07-22T08:36:09;4.40;;;1.90;;
68357;SDS011;55276;53.260;50.222;2022-07-22T08:38:36;7.82;;;2.28;;
68357;SDS011;55276;53.260;50.222;2022-07-22T08:41:03;4.38;;;2.20;;
68357;SDS011;55276;53.260;50.222;2022-07-22T08:45:56;7.65;;;2.15;;
68357;SDS011;55276;53.260;50.222;2022-07-22T08:48:22;12.43;;;2.90;;
68357;SDS011;55276;53.260;50.222;2022-07-22T08:50:48;9.73;;;2.20;;
68357;SDS011;55276;53.260;50.222;2022-07-22T08:53:14;8.97;;;2.43;;
68357;SDS011;55276;53.260;50.222;2022-07-22T08:55:41;5.68;;;2.25;;
68357;SDS011;55276;53.260;50.222;2022-07-22T08:58:08;9.38;;;2.15;;
68357;SDS011;55276;53.260;50.222;2022-07-22T09:00:35;3.78;;;1.88;;
68357;SDS011;55276;53.260;50.222;2022-07-22T09:03:05;5.65;;;1.90;;
68357;SDS011;55276;53.260;50.222;2022-07-22T09:05:43;6.00;;;1.90;;
68357;SDS011;55276;53.260;50.222;2022-07-22T09:08:09;5.38;;;2.20;;
68357;SDS011;55276;53.260;50.222;2022-07-22T09:10:35;3.13;;;2.00;;
68357;SDS011;55276;53.260;50.222;2022-07-22T09:13:03;12.07;;;2.50;;
68357;SDS011;55276;53.260;50.222;2022-07-22T09:15:31;4.53;;;1.70;;
68357;SDS011;55276;53.260;50.222;2022-07-22T09:18:01;2.80;;;1.98;;
68357;SDS011;55276;53.260;50.222;2022-07-22T09:20:28;8.55;;;2.80;;
68357;SDS011;55276;53.260;50.222;2022-07-22T09:25:22;6.38;;;2.40;;
68357;SDS011;55276;53.260;50.222;2022-07-22T09:27:53;10.10;;;2.40;;
68357;SDS011;55276;53.260;50.222;2022-07-22T09:30:24;7.43;;;3.03;;
68357;SDS011;55276;53.260;50.222;2022-07-22T09:32:52;9.57;;;2.60;;
68357;SDS011;55276;53.260;50.222;2022-07-22T09:35:23;6.25;;;2.60;;
68357;SDS011;55276;53.260;50.222;2022-07-22T09:37:54;8.63;;;2.38;;
68357;SDS011;55276;53.260;50.222;2022-07-22T09:40:23;5.93;;;2.63;;
68357;SDS011;55276;53.260;50.222;2022-07-22T09:42:52;9.98;;;2.45;;
68357;SDS011;55276;53.260;50.222;2022-07-22T09:45:20;6.57;;;2.40;;
68357;SDS011;55276;53.260;50.222;2022-07-22T09:47:48;8.88;;;2.72;;
68357;SDS011;55276;53.260;50.222;2022-07-22T09:52:52;7.85;;;3.00;;
68357;SDS011;55276;53.260;50.222;2022-07-22T09:55:20;10.35;;;2.83;;
68357;SDS011;55276;53.260;50.222;2022-07-22T09:57:47;5.72;;;2.67;;
68357;SDS011;55276;53.260;50.222;2022-07-22T10:00:15;11.63;;;2.85;;
68357;SDS011;55276;53.260;50.222;2022-07-22T10:02:48;6.13;;;2.17;;
68357;SDS011;55276;53.260;50.222;2022-07-22T10:05:16;7.55;;;2.40;;
68357;SDS011;55276;53.260;50.222;2022-07-22T10:07:44;8.63;;;2.47;;
68357;SDS011;55276;53.260;50.222;2022-07-22T10:12:38;8.47;;;2.53;;
68357;SDS011;55276;53.260;50.222;2022-07-22T10:15:05;9.18;;;2.47;;
68357;SDS011;55276;53.260;50.222;2022-07-22T10:17:34;15.00;;;2.65;;
68357;SDS011;55276;53.260;50.222;2022-07-22T10:20:02;9.70;;;2.33;;
68357;SDS011;55276;53.260;50.222;2022-07-22T10:25:11;7.53;;;2.20;;
68357;SDS011;55276;53.260;50.222;2022-07-22T10:27:45;6.85;;;2.40;;
68357;SDS011;55276;53.260;50.222;2022-07-22T10:30:16;9.02;;;2.10;;
68357;SDS011;55276;53.260;50.222;2022-07-22T10:32:45;3.78;;;2.22;;
68357;SDS011;55276;53.260;50.222;2022-07-22T10:35:26;8.63;;;2.50;;
68357;SDS011;55276;53.260;50.222;2022-07-22T10:37:53;15.40;;;2.60;;
68357;SDS011;55276;53.260;50.222;2022-07-22T10:40:24;9.48;;;2.97;;
68357;SDS011;55276;53.260;50.222;2022-07-22T10:45:26;9.00;;;3.08;;
68357;SDS011;55276;53.260;50.222;2022-07-22T10:47:57;11.25;;;2.33;;
68357;SDS011;55276;53.260;50.222;2022-07-22T10:50:46;6.90;;;2.00;;
68357;SDS011;55276;53.260;50.222;2022-07-22T10:53:13;4.22;;;2.10;;
68357;SDS011;55276;53.260;50.222;2022-07-22T11:01:05;6.17;;;2.33;;
68357;SDS011;55276;53.260;50.222;2022-07-22T11:03:33;9.13;;;2.90;;
68357;SDS011;55276;53.260;50.222;2022-07-22T11:08:38;11.43;;;1.90;;
68357;SDS011;55276;53.260;50.222;2022-07-22T11:11:06;8.20;;;2.33;;
68357;SDS011;55276;53.260;50.222;2022-07-22T11:13:33;6.57;;;2.30;;
68357;SDS011;55276;53.260;50.222;2022-07-22T11:16:22;7.85;;;1.90;;
68357;SDS011;55276;53.260;50.222;2022-07-22T11:18:55;5.88;;;1.83;;
68357;SDS011;55276;53.260;50.222;2022-07-22T11:21:24;8.27;;;3.00;;
68357;SDS011;55276;53.260;50.222;2022-07-22T11:23:53;8.57;;;2.00;;
68357;SDS011;55276;53.260;50.222;2022-07-22T11:26:24;11.98;;;2.30;;
68357;SDS011;55276;53.260;50.222;2022-07-22T11:28:59;11.98;;;3.78;;
68357;SDS011;55276;53.260;50.222;2022-07-22T11:31:27;4.65;;;1.80;;
68357;SDS011;55276;53.260;50.222;2022-07-22T11:34:03;19.58;;;2.42;;
68357;SDS011;55276;53.260;50.222;2022-07-22T11:36:34;5.95;;;2.25;;
68357;SDS011;55276;53.260;50.222;2022-07-22T11:39:02;14.23;;;2.60;;
68357;SDS011;55276;53.260;50.222;2022-07-22T11:43:56;6.75;;;2.05;;
68357;SDS011;55276;53.260;50.222;2022-07-22T11:46:24;6.03;;;2.47;;
68357;SDS011;55276;53.260;50.222;2022-07-22T11:51:26;9.40;;;3.33;;
68357;SDS011;55276;53.260;50.222;2022-07-22T11:53:55;11.90;;;2.70;;
68357;SDS011;55276;53.260;50.222;2022-07-22T12:01:19;8.85;;;2.40;;
68357;SDS011;55276;53.260;50.222;2022-07-22T12:03:52;7.78;;;2.40;;
68357;SDS011;55276;53.260;50.222;2022-07-22T12:06:24;8.23;;;2.30;;
68357;SDS011;55276;53.260;50.222;2022-07-22T12:08:54;25.00;;;5.28;;
68357;SDS011;55276;53.260;50.222;2022-07-22T12:11:27;11.07;;;2.45;;
68357;SDS011;55276;53.260;50.222;2022-07-22T12:13:53;10.10;;;2.35;;
68357;SDS011;55276;53.260;50.222;2022-07-22T12:18:50;10.60;;;2.92;;
68357;SDS011;55276;53.260;50.222;2022-07-22T12:21:32;25.60;;;4.32;;
68357;SDS011;55276;53.260;50.222;2022-07-22T12:24:14;7.32;;;2.63;;
68357;SDS011;55276;53.260;50.222;2022-07-22T12:26:47;12.25;;;3.58;;
68357;SDS011;55276;53.260;50.222;2022-07-22T12:29:22;7.95;;;2.75;;
68357;SDS011;55276;53.260;50.222;2022-07-22T12:31:50;17.55;;;3.22;;
68357;SDS011;55276;53.260;50.222;2022-07-22T12:37:25;7.80;;;2.60;;
68357;SDS011;55276;53.260;50.222;2022-07-22T12:42:40;11.82;;;3.25;;
68357;SDS011;55276;53.260;50.222;2022-07-22T12:52:44;10.55;;;3.70;;
68357;SDS011;55276;53.260;50.222;2022-07-22T12:55:10;12.98;;;4.32;;
68357;SDS011;55276;53.260;50.222;2022-07-22T12:57:37;10.93;;;4.17;;
68357;SDS011;55276;53.260;50.222;2022-07-22T13:00:03;11.30;;;4.05;;
68357;SDS011;55276;53.260;50.222;2022-07-22T13:02:30;9.15;;;4.25;;
68357;SDS011;55276;53.260;50.222;2022-07-22T13:04:56;13.75;;;4.38;;
68357;SDS011;55276;53.260;50.222;2022-07-22T13:07:22;13.13;;;3.97;;
68357;SDS011;55276;53.260;50.222;2022-07-22T13:09:48;14.68;;;3.60;;
68357;SDS011;55276;53.260;50.222;2022-07-22T13:12:14;9.83;;;3.10;;
68357;SDS011;55276;53.260;50.222;2022-07-22T13:14:40;5.28;;;2.30;;
68357;SDS011;55276;53.260;50.222;2022-07-22T13:17:06;7.57;;;2.10;;
68357;SDS011;55276;53.260;50.222;2022-07-22T13:19:32;7.40;;;2.07;;
68357;SDS011;55276;53.260;50.222;2022-07-22T13:21:58;6.18;;;1.70;;
68357;SDS011;55276;53.260;50.222;2022-07-22T13:24:24;7.75;;;1.80;;
68357;SDS011;55276;53.260;50.222;2022-07-22T13:26:50;4.03;;;1.63;;
68357;SDS011;55276;53.260;50.222;2022-07-22T13:29:17;5.75;;;2.35;;
68357;SDS011;55276;53.260;50.222;2022-07-22T13:31:43;7.88;;;2.40;;
68357;SDS011;55276;53.260;50.222;2022-07-22T13:34:09;7.87;;;2.00;;
68357;SDS011;55276;53.260;50.222;2022-07-22T13:36:36;5.80;;;2.13;;
68357;SDS011;55276;53.260;50.222;2022-07-22T13:39:02;5.85;;;1.83;;
68357;SDS011;55276;53.260;50.222;2022-07-22T13:41:30;6.07;;;1.70;;
68357;SDS011;55276;53.260;50.222;2022-07-22T13:43:57;7.47;;;1.98;;
68357;SDS011;55276;53.260;50.222;2022-07-22T13:46:23;3.90;;;2.10;;
68357;SDS011;55276;53.260;50.222;2022-07-22T13:48:49;5.63;;;1.90;;
68357;SDS011;55276;53.260;50.222;2022-07-22T13:51:15;8.20;;;2.20;;
68357;SDS011;55276;53.260;50.222;2022-07-22T13:53:41;6.17;;;2.40;;
68357;SDS011;55276;53.260;50.222;2022-07-22T13:56:08;6.72;;;2.42;;
68357;SDS011;55276;53.260;50.222;2022-07-22T13:58:35;4.47;;;2.10;;
68357;SDS011;55276;53.260;50.222;2022-07-22T14:01:03;7.82;;;2.20;;
68357;SDS011;55276;53.260;50.222;2022-07-22T14:03:29;13.70;;;2.45;;
68357;SDS011;55276;53.260;50.222;2022-07-22T14:05:55;7.63;;;2.67;;
68357;SDS011;55276;53.260;50.222;2022-07-22T14:08:21;6.10;;;2.70;;
68357;SDS011;55276;53.260;50.222;2022-07-22T14:10:47;7.70;;;2.83;;
68357;SDS011;55276;53.260;50.222;2022-07-22T14:13:13;18.30;;;2.70;;
68357;SDS011;55276;53.260;50.222;2022-07-22T14:15:39;7.53;;;2.63;;
68357;SDS011;55276;53.260;50.222;2022-07-22T14:18:05;12.47;;;2.67;;
68357;SDS011;55276;53.260;50.222;2022-07-22T14:20:32;13.70;;;2.55;;
68357;SDS011;55276;53.260;50.222;2022-07-22T14:22:59;11.35;;;2.70;;
68357;SDS011;55276;53.260;50.222;2022-07-22T14:25:27;12.73;;;2.67;;
68357;SDS011;55276;53.260;50.222;2022-07-22T14:27:53;17.45;;;2.90;;
68357;SDS011;55276;53.260;50.222;2022-07-22T14:30:19;13.63;;;3.05;;
68357;SDS011;55276;53.260;50.222;2022-07-22T14:32:47;8.25;;;2.50;;
68357;SDS011;55276;53.260;50.222;2022-07-22T14:35:13;11.85;;;3.10;;
68357;SDS011;55276;53.260;50.222;2022-07-22T14:37:39;11.05;;;3.15;;
68357;SDS011;55276;53.260;50.222;2022-07-22T14:40:05;18.17;;;2.70;;
68357;SDS011;55276;53.260;50.222;2022-07-22T14:42:32;9.35;;;2.72;;
68357;SDS011;55276;53.260;50.222;2022-07-22T14:44:58;11.32;;;3.15;;
68357;SDS011;55276;53.260;50.222;2022-07-22T14:47:24;11.73;;;3.47;;
68357;SDS011;55276;53.260;50.222;2022-07-22T14:49:50;11.73;;;3.03;;
68357;SDS011;55276;53.260;50.222;2022-07-22T14:52:16;13.90;;;3.43;;
68357;SDS011;55276;53.260;50.222;2022-07-22T14:54:42;7.07;;;2.78;;
68357;SDS011;55276;53.260;50.222;2022-07-22T14:57:08;10.20;;;3.37;;
68357;SDS011;55276;53.260;50.222;2022-07-22T14:59:34;9.38;;;3.03;;
68357;SDS011;55276;53.260;50.222;2022-07-22T15:02:00;9.47;;;3.17;;
68357;SDS011;55276;53.260;50.222;2022-07-22T15:04:26;9.15;;;3.03;;
68357;SDS011;55276;53.260;50.222;2022-07-22T15:06:52;16.47;;;4.87;;
68357;SDS011;55276;53.260;50.222;2022-07-22T15:09:18;12.85;;;3.30;;
68357;SDS011;55276;53.260;50.222;2022-07-22T15:11:44;8.32;;;3.60;;
68357;SDS011;55276;53.260;50.222;2022-07-22T15:14:11;12.47;;;3.83;;
68357;SDS011;55276;53.260;50.222;2022-07-22T15:16:37;7.97;;;3.75;;
68357;SDS011;55276;53.260;50.222;2022-07-22T15:19:03;15.37;;;4.70;;
68357;SDS011;55276;53.260;50.222;2022-07-22T15:21:29;8.37;;;3.90;;